sensor_id;sensor_type;location;lat;lon;timestamp;pressure;altitude;pressure_sealevel;temperature;humidity
50302;BME280;36550;50.472;19.744;2024-03-25T00:02:06;96665.43;;;3.70;78.68
50302;BME280;36550;50.472;19.744;2024-03-25T00:04:50;96662.34;;;3.71;78.74
50302;BME280;36550;50.472;19.744;2024-03-25T00:07:34;96659.58;;;3.72;78.75
50302;BME280;36550;50.472;19.744;2024-03-25T00:10:18;96659.44;;;3.73;78.73
50302;BME280;36550;50.472;19.744;2024-03-25T00:13:04;96664.38;;;3.71;78.63
50302;BME280;36550;50.472;19.744;2024-03-25T00:15:48;96657.83;;;3.66;78.64
50302;BME280;36550;50.472;19.744;2024-03-25T00:18:33;96660.86;;;3.60;78.53
50302;BME280;36550;50.472;19.744;2024-03-25T00:21:17;96661.64;;;3.54;78.44
50302;BME280;36550;50.472;19.744;2024-03-25T00:24:01;96662.90;;;3.46;78.50
50302;BME280;36550;50.472;19.744;2024-03-25T00:26:45;96656.84;;;3.42;78.63
50302;BME280;36550;50.472;19.744;2024-03-25T00:29:30;96655.54;;;3.40;78.98
50302;BME280;36550;50.472;19.744;2024-03-25T00:32:14;96654.59;;;3.41;79.24
50302;BME280;36550;50.472;19.744;2024-03-25T00:34:59;96658.54;;;3.42;79.22
50302;BME280;36550;50.472;19.744;2024-03-25T00:37:43;96655.33;;;3.41;79.20
50302;BME280;36550;50.472;19.744;2024-03-25T00:40:29;96650.63;;;3.40;79.06
50302;BME280;36550;50.472;19.744;2024-03-25T00:43:13;96645.63;;;3.38;79.04
50302;BME280;36550;50.472;19.744;2024-03-25T00:45:58;96644.45;;;3.34;79.12
50302;BME280;36550;50.472;19.744;2024-03-25T00:48:43;96642.80;;;3.30;79.11
50302;BME280;36550;50.472;19.744;2024-03-25T00:51:27;96636.67;;;3.25;79.14
50302;BME280;36550;50.472;19.744;2024-03-25T00:54:11;96636.80;;;3.20;79.27
50302;BME280;36550;50.472;19.744;2024-03-25T00:56:56;96640.80;;;3.15;79.40
50302;BME280;36550;50.472;19.744;2024-03-25T00:59:40;96635.86;;;3.08;79.39
50302;BME280;36550;50.472;19.744;2024-03-25T01:02:24;96630.02;;;3.02;79.40
50302;BME280;36550;50.472;19.744;2024-03-25T01:05:11;96629.84;;;2.97;79.50
50302;BME280;36550;50.472;19.744;2024-03-25T01:07:55;96624.00;;;2.92;79.63
50302;BME280;36550;50.472;19.744;2024-03-25T01:10:39;96624.59;;;2.87;79.75
50302;BME280;36550;50.472;19.744;2024-03-25T01:13:23;96626.48;;;2.82;79.93
50302;BME280;36550;50.472;19.744;2024-03-25T01:16:08;96627.12;;;2.79;79.94
50302;BME280;36550;50.472;19.744;2024-03-25T01:18:53;96626.65;;;2.75;79.99
50302;BME280;36550;50.472;19.744;2024-03-25T01:21:37;96628.88;;;2.73;80.15
50302;BME280;36550;50.472;19.744;2024-03-25T01:24:21;96628.02;;;2.71;80.27
50302;BME280;36550;50.472;19.744;2024-03-25T01:27:06;96626.02;;;2.72;80.85
50302;BME280;36550;50.472;19.744;2024-03-25T01:29:50;96625.52;;;2.73;81.12
50302;BME280;36550;50.472;19.744;2024-03-25T01:32:34;96620.05;;;2.74;81.27
50302;BME280;36550;50.472;19.744;2024-03-25T01:35:18;96621.51;;;2.74;81.41
50302;BME280;36550;50.472;19.744;2024-03-25T01:38:03;96624.79;;;2.74;81.49
50302;BME280;36550;50.472;19.744;2024-03-25T01:40:47;96625.81;;;2.75;81.70
50302;BME280;36550;50.472;19.744;2024-03-25T01:43:32;96624.35;;;2.74;81.72
50302;BME280;36550;50.472;19.744;2024-03-25T01:46:17;96624.92;;;2.72;81.70
50302;BME280;36550;50.472;19.744;2024-03-25T01:49:03;96624.20;;;2.70;81.54
50302;BME280;36550;50.472;19.744;2024-03-25T01:51:47;96624.14;;;2.68;81.79
50302;BME280;36550;50.472;19.744;2024-03-25T01:54:32;96623.33;;;2.66;82.05
50302;BME280;36550;50.472;19.744;2024-03-25T01:57:17;96624.00;;;2.64;82.08
50302;BME280;36550;50.472;19.744;2024-03-25T02:00:01;96623.14;;;2.62;82.06
50302;BME280;36550;50.472;19.744;2024-03-25T02:02:46;96627.29;;;2.58;81.91
50302;BME280;36550;50.472;19.744;2024-03-25T02:05:31;96629.81;;;2.54;81.96
50302;BME280;36550;50.472;19.744;2024-03-25T02:08:15;96632.88;;;2.50;81.96
50302;BME280;36550;50.472;19.744;2024-03-25T02:10:59;96627.74;;;2.46;81.95
50302;BME280;36550;50.472;19.744;2024-03-25T02:13:44;96632.08;;;2.44;81.74
50302;BME280;36550;50.472;19.744;2024-03-25T02:16:29;96629.67;;;2.41;81.83
50302;BME280;36550;50.472;19.744;2024-03-25T02:19:13;96630.66;;;2.38;81.77
50302;BME280;36550;50.472;19.744;2024-03-25T02:21:59;96627.39;;;2.34;81.70
50302;BME280;36550;50.472;19.744;2024-03-25T02:24:45;96625.96;;;2.31;81.73
50302;BME280;36550;50.472;19.744;2024-03-25T02:27:30;96622.83;;;2.26;81.75
50302;BME280;36550;50.472;19.744;2024-03-25T02:30:16;96622.29;;;2.23;81.90
50302;BME280;36550;50.472;19.744;2024-03-25T02:33:00;96622.88;;;2.20;81.87
50302;BME280;36550;50.472;19.744;2024-03-25T02:35:44;96620.69;;;2.17;81.91
50302;BME280;36550;50.472;19.744;2024-03-25T02:38:30;96620.19;;;2.14;82.01
50302;BME280;36550;50.472;19.744;2024-03-25T02:41:16;96620.50;;;2.11;81.98
50302;BME280;36550;50.472;19.744;2024-03-25T02:44:00;96630.50;;;2.10;82.14
50302;BME280;36550;50.472;19.744;2024-03-25T02:46:44;96631.58;;;2.10;82.26
50302;BME280;36550;50.472;19.744;2024-03-25T02:49:28;96629.23;;;2.09;82.26
50302;BME280;36550;50.472;19.744;2024-03-25T02:52:12;96626.05;;;2.10;82.37
50302;BME280;36550;50.472;19.744;2024-03-25T02:54:56;96628.14;;;2.11;82.49
50302;BME280;36550;50.472;19.744;2024-03-25T02:57:41;96632.23;;;2.14;82.56
50302;BME280;36550;50.472;19.744;2024-03-25T03:00:25;96644.46;;;2.19;82.65
50302;BME280;36550;50.472;19.744;2024-03-25T03:03:09;96640.68;;;2.24;82.80
50302;BME280;36550;50.472;19.744;2024-03-25T03:05:54;96637.52;;;2.31;83.02
50302;BME280;36550;50.472;19.744;2024-03-25T03:08:38;96636.82;;;2.36;83.22
50302;BME280;36550;50.472;19.744;2024-03-25T03:11:22;96638.07;;;2.38;83.44
50302;BME280;36550;50.472;19.744;2024-03-25T03:14:06;96639.60;;;2.37;83.26
50302;BME280;36550;50.472;19.744;2024-03-25T03:16:50;96637.08;;;2.34;83.24
50302;BME280;36550;50.472;19.744;2024-03-25T03:19:38;96635.95;;;2.29;83.29
50302;BME280;36550;50.472;19.744;2024-03-25T03:22:22;96638.16;;;2.25;83.18
50302;BME280;36550;50.472;19.744;2024-03-25T03:25:06;96638.36;;;2.21;83.23
50302;BME280;36550;50.472;19.744;2024-03-25T03:27:50;96648.22;;;2.18;83.28
50302;BME280;36550;50.472;19.744;2024-03-25T03:30:34;96651.92;;;2.19;83.52
50302;BME280;36550;50.472;19.744;2024-03-25T03:33:19;96651.17;;;2.22;83.77
50302;BME280;36550;50.472;19.744;2024-03-25T03:36:03;96648.89;;;2.24;83.68
50302;BME280;36550;50.472;19.744;2024-03-25T03:38:51;96649.47;;;2.29;83.97
50302;BME280;36550;50.472;19.744;2024-03-25T03:41:35;96650.45;;;2.36;84.24
50302;BME280;36550;50.472;19.744;2024-03-25T03:44:19;96653.77;;;2.42;84.32
50302;BME280;36550;50.472;19.744;2024-03-25T03:47:04;96657.20;;;2.48;84.34
50302;BME280;36550;50.472;19.744;2024-03-25T03:49:48;96653.68;;;2.53;84.30
50302;BME280;36550;50.472;19.744;2024-03-25T03:52:33;96647.96;;;2.58;84.31
50302;BME280;36550;50.472;19.744;2024-03-25T03:55:17;96648.62;;;2.63;84.43
50302;BME280;36550;50.472;19.744;2024-03-25T03:58:01;96648.46;;;2.68;84.33
50302;BME280;36550;50.472;19.744;2024-03-25T04:00:45;96648.52;;;2.73;84.28
50302;BME280;36550;50.472;19.744;2024-03-25T04:03:30;96641.40;;;2.76;84.24
50302;BME280;36550;50.472;19.744;2024-03-25T04:06:15;96642.80;;;2.78;84.15
50302;BME280;36550;50.472;19.744;2024-03-25T04:09:00;96643.15;;;2.78;84.05
50302;BME280;36550;50.472;19.744;2024-03-25T04:11:44;96642.70;;;2.75;83.90
50302;BME280;36550;50.472;19.744;2024-03-25T04:14:28;96638.23;;;2.70;83.75
50302;BME280;36550;50.472;19.744;2024-03-25T04:17:12;96636.48;;;2.65;83.79
50302;BME280;36550;50.472;19.744;2024-03-25T04:20:00;96639.69;;;2.61;83.67
50302;BME280;36550;50.472;19.744;2024-03-25T04:22:45;96638.89;;;2.56;83.71
50302;BME280;36550;50.472;19.744;2024-03-25T04:25:29;96640.02;;;2.50;83.77
50302;BME280;36550;50.472;19.744;2024-03-25T04:28:14;96639.77;;;2.45;83.88
50302;BME280;36550;50.472;19.744;2024-03-25T04:30:58;96643.21;;;2.42;84.06
50302;BME280;36550;50.472;19.744;2024-03-25T04:33:42;96642.27;;;2.40;84.06
50302;BME280;36550;50.472;19.744;2024-03-25T04:36:26;96638.90;;;2.38;84.16
50302;BME280;36550;50.472;19.744;2024-03-25T04:39:11;96643.61;;;2.38;84.38
50302;BME280;36550;50.472;19.744;2024-03-25T04:41:55;96642.52;;;2.38;84.37
50302;BME280;36550;50.472;19.744;2024-03-25T04:44:40;96641.73;;;2.39;84.53
50302;BME280;36550;50.472;19.744;2024-03-25T04:47:24;96639.55;;;2.38;84.35
50302;BME280;36550;50.472;19.744;2024-03-25T04:50:09;96640.77;;;2.38;84.38
50302;BME280;36550;50.472;19.744;2024-03-25T04:52:53;96638.83;;;2.38;84.49
50302;BME280;36550;50.472;19.744;2024-03-25T04:55:37;96641.88;;;2.39;84.67
50302;BME280;36550;50.472;19.744;2024-03-25T04:58:21;96642.36;;;2.39;84.51
50302;BME280;36550;50.472;19.744;2024-03-25T05:01:06;96643.38;;;2.40;84.62
50302;BME280;36550;50.472;19.744;2024-03-25T05:03:50;96646.03;;;2.43;84.58
50302;BME280;36550;50.472;19.744;2024-03-25T05:06:34;96646.72;;;2.45;84.70
50302;BME280;36550;50.472;19.744;2024-03-25T05:09:18;96649.16;;;2.47;84.80
50302;BME280;36550;50.472;19.744;2024-03-25T05:12:02;96654.85;;;2.52;84.87
50302;BME280;36550;50.472;19.744;2024-03-25T05:14:46;96653.59;;;2.61;84.90
50302;BME280;36550;50.472;19.744;2024-03-25T05:17:30;96657.73;;;2.75;84.89
50302;BME280;36550;50.472;19.744;2024-03-25T05:20:15;96660.56;;;2.91;84.98
50302;BME280;36550;50.472;19.744;2024-03-25T05:22:59;96658.77;;;3.08;85.08
50302;BME280;36550;50.472;19.744;2024-03-25T05:25:43;96661.99;;;3.29;85.39
50302;BME280;36550;50.472;19.744;2024-03-25T05:28:27;96663.55;;;3.54;85.44
50302;BME280;36550;50.472;19.744;2024-03-25T05:31:11;96660.85;;;3.82;85.42
50302;BME280;36550;50.472;19.744;2024-03-25T05:33:55;96658.17;;;4.16;85.45
50302;BME280;36550;50.472;19.744;2024-03-25T05:36:39;96653.96;;;4.52;85.20
50302;BME280;36550;50.472;19.744;2024-03-25T05:39:24;96656.02;;;4.87;85.00
50302;BME280;36550;50.472;19.744;2024-03-25T05:42:08;96660.49;;;5.16;84.53
50302;BME280;36550;50.472;19.744;2024-03-25T05:44:52;96659.63;;;5.38;84.03
50302;BME280;36550;50.472;19.744;2024-03-25T05:47:36;96664.87;;;5.53;83.61
50302;BME280;36550;50.472;19.744;2024-03-25T05:50:20;96668.86;;;5.58;83.05
50302;BME280;36550;50.472;19.744;2024-03-25T05:53:04;96667.84;;;5.59;82.57
50302;BME280;36550;50.472;19.744;2024-03-25T05:55:48;96669.55;;;5.58;82.25
50302;BME280;36550;50.472;19.744;2024-03-25T05:58:32;96670.64;;;5.56;82.03
50302;BME280;36550;50.472;19.744;2024-03-25T06:01:16;96673.59;;;5.48;81.71
50302;BME280;36550;50.472;19.744;2024-03-25T06:04:01;96669.20;;;5.40;81.43
50302;BME280;36550;50.472;19.744;2024-03-25T06:06:44;96670.60;;;5.32;81.33
50302;BME280;36550;50.472;19.744;2024-03-25T06:09:29;96669.02;;;5.29;81.24
50302;BME280;36550;50.472;19.744;2024-03-25T06:12:13;96673.94;;;5.26;81.13
50302;BME280;36550;50.472;19.744;2024-03-25T06:14:58;96674.77;;;5.27;81.10
50302;BME280;36550;50.472;19.744;2024-03-25T06:17:42;96677.05;;;5.32;81.24
50302;BME280;36550;50.472;19.744;2024-03-25T06:20:26;96677.42;;;5.42;81.17
50302;BME280;36550;50.472;19.744;2024-03-25T06:23:10;96680.34;;;5.50;81.16
50302;BME280;36550;50.472;19.744;2024-03-25T06:25:55;96683.73;;;5.57;81.19
50302;BME280;36550;50.472;19.744;2024-03-25T06:28:39;96686.19;;;5.65;81.03
50302;BME280;36550;50.472;19.744;2024-03-25T06:31:23;96684.83;;;5.70;80.81
50302;BME280;36550;50.472;19.744;2024-03-25T06:34:26;96688.73;;;5.74;80.51
50302;BME280;36550;50.472;19.744;2024-03-25T06:37:10;96691.63;;;5.82;80.55
50302;BME280;36550;50.472;19.744;2024-03-25T06:39:55;96697.23;;;5.93;80.66
50302;BME280;36550;50.472;19.744;2024-03-25T06:42:38;96702.73;;;6.01;80.37
50302;BME280;36550;50.472;19.744;2024-03-25T06:45:22;96704.13;;;6.07;80.03
50302;BME280;36550;50.472;19.744;2024-03-25T06:48:07;96699.98;;;6.23;80.01
50302;BME280;36550;50.472;19.744;2024-03-25T06:50:58;96704.16;;;6.50;80.14
50302;BME280;36550;50.472;19.744;2024-03-25T06:53:42;96707.17;;;6.80;79.96
50302;BME280;36550;50.472;19.744;2024-03-25T06:56:27;96705.17;;;7.00;79.60
50302;BME280;36550;50.472;19.744;2024-03-25T06:59:11;96709.52;;;7.02;79.33
50302;BME280;36550;50.472;19.744;2024-03-25T07:01:55;96708.35;;;6.95;79.04
50302;BME280;36550;50.472;19.744;2024-03-25T07:04:40;96718.54;;;6.84;78.85
50302;BME280;36550;50.472;19.744;2024-03-25T07:07:24;96719.30;;;6.74;78.59
50302;BME280;36550;50.472;19.744;2024-03-25T07:10:08;96719.91;;;6.65;78.80
50302;BME280;36550;50.472;19.744;2024-03-25T07:12:53;96718.41;;;6.62;78.99
50302;BME280;36550;50.472;19.744;2024-03-25T07:15:37;96719.59;;;6.64;79.03
50302;BME280;36550;50.472;19.744;2024-03-25T07:18:21;96721.27;;;6.68;79.06
50302;BME280;36550;50.472;19.744;2024-03-25T07:21:05;96724.45;;;6.77;79.12
50302;BME280;36550;50.472;19.744;2024-03-25T07:23:50;96723.34;;;6.93;79.22
50302;BME280;36550;50.472;19.744;2024-03-25T07:26:34;96723.64;;;7.01;79.12
50302;BME280;36550;50.472;19.744;2024-03-25T07:29:19;96725.41;;;7.04;79.00
50302;BME280;36550;50.472;19.744;2024-03-25T07:32:03;96722.23;;;7.09;78.85
50302;BME280;36550;50.472;19.744;2024-03-25T07:34:48;96723.87;;;7.11;78.51
50302;BME280;36550;50.472;19.744;2024-03-25T07:37:33;96725.54;;;7.11;78.44
50302;BME280;36550;50.472;19.744;2024-03-25T07:40:18;96725.24;;;7.17;78.45
50302;BME280;36550;50.472;19.744;2024-03-25T07:43:03;96729.06;;;7.27;78.47
50302;BME280;36550;50.472;19.744;2024-03-25T07:45:49;96732.67;;;7.49;78.78
50302;BME280;36550;50.472;19.744;2024-03-25T07:48:33;96735.37;;;7.86;78.98
50302;BME280;36550;50.472;19.744;2024-03-25T07:51:19;96735.81;;;8.19;78.85
50302;BME280;36550;50.472;19.744;2024-03-25T07:54:03;96735.75;;;8.47;78.73
50302;BME280;36550;50.472;19.744;2024-03-25T07:56:47;96742.90;;;8.57;78.17
50302;BME280;36550;50.472;19.744;2024-03-25T07:59:32;96745.64;;;8.62;77.73
50302;BME280;36550;50.472;19.744;2024-03-25T08:02:16;96748.38;;;8.64;77.62
50302;BME280;36550;50.472;19.744;2024-03-25T08:05:00;96745.78;;;8.75;77.39
50302;BME280;36550;50.472;19.744;2024-03-25T08:07:44;96747.17;;;8.95;77.30
50302;BME280;36550;50.472;19.744;2024-03-25T08:10:29;96749.25;;;9.28;76.93
50302;BME280;36550;50.472;19.744;2024-03-25T08:13:13;96744.98;;;9.53;77.11
50302;BME280;36550;50.472;19.744;2024-03-25T08:15:56;96744.59;;;9.66;76.36
50302;BME280;36550;50.472;19.744;2024-03-25T08:18:41;96744.48;;;9.68;75.83
50302;BME280;36550;50.472;19.744;2024-03-25T08:21:25;96746.90;;;9.73;75.25
50302;BME280;36550;50.472;19.744;2024-03-25T08:24:09;96752.35;;;9.75;74.74
50302;BME280;36550;50.472;19.744;2024-03-25T08:26:53;96749.75;;;9.77;74.58
50302;BME280;36550;50.472;19.744;2024-03-25T08:29:37;96747.65;;;9.85;74.44
50302;BME280;36550;50.472;19.744;2024-03-25T08:32:22;96752.33;;;9.90;74.40
50302;BME280;36550;50.472;19.744;2024-03-25T08:35:06;96751.98;;;9.92;74.71
50302;BME280;36550;50.472;19.744;2024-03-25T08:37:50;96752.94;;;9.81;74.09
50302;BME280;36550;50.472;19.744;2024-03-25T08:40:36;96751.23;;;9.68;73.76
50302;BME280;36550;50.472;19.744;2024-03-25T08:43:20;96756.36;;;9.59;73.73
50302;BME280;36550;50.472;19.744;2024-03-25T08:46:04;96757.27;;;9.67;73.76
50302;BME280;36550;50.472;19.744;2024-03-25T08:48:48;96760.02;;;9.78;73.79
50302;BME280;36550;50.472;19.744;2024-03-25T08:51:34;96763.64;;;9.87;73.61
50302;BME280;36550;50.472;19.744;2024-03-25T08:54:18;96764.33;;;9.87;73.57
50302;BME280;36550;50.472;19.744;2024-03-25T08:57:02;96769.08;;;9.81;72.81
50302;BME280;36550;50.472;19.744;2024-03-25T08:59:46;96772.40;;;9.85;73.57
50302;BME280;36550;50.472;19.744;2024-03-25T09:02:30;96776.17;;;9.84;73.52
50302;BME280;36550;50.472;19.744;2024-03-25T09:05:14;96777.09;;;9.70;73.50
50302;BME280;36550;50.472;19.744;2024-03-25T09:08:02;96780.35;;;9.58;73.40
50302;BME280;36550;50.472;19.744;2024-03-25T09:10:46;96780.39;;;9.52;73.23
50302;BME280;36550;50.472;19.744;2024-03-25T09:13:51;96783.30;;;9.59;73.69
50302;BME280;36550;50.472;19.744;2024-03-25T09:16:35;96781.34;;;9.83;73.35
50302;BME280;36550;50.472;19.744;2024-03-25T09:19:19;96781.11;;;10.04;73.71
50302;BME280;36550;50.472;19.744;2024-03-25T09:22:04;96780.88;;;10.29;72.95
50302;BME280;36550;50.472;19.744;2024-03-25T09:24:48;96784.67;;;10.43;71.68
50302;BME280;36550;50.472;19.744;2024-03-25T09:27:33;96781.63;;;10.65;71.72
50302;BME280;36550;50.472;19.744;2024-03-25T09:30:18;96782.77;;;10.90;71.35
50302;BME280;36550;50.472;19.744;2024-03-25T09:33:03;96783.57;;;11.02;71.28
50302;BME280;36550;50.472;19.744;2024-03-25T09:35:47;96783.80;;;10.96;69.51
50302;BME280;36550;50.472;19.744;2024-03-25T09:38:31;96781.75;;;10.79;69.70
50302;BME280;36550;50.472;19.744;2024-03-25T09:41:16;96782.83;;;10.61;69.10
50302;BME280;36550;50.472;19.744;2024-03-25T09:44:00;96784.25;;;10.51;68.29
50302;BME280;36550;50.472;19.744;2024-03-25T09:46:44;96785.14;;;10.57;68.12
50302;BME280;36550;50.472;19.744;2024-03-25T09:49:28;96784.75;;;10.66;67.41
50302;BME280;36550;50.472;19.744;2024-03-25T09:52:15;96784.16;;;10.79;67.80
50302;BME280;36550;50.472;19.744;2024-03-25T09:54:59;96780.54;;;11.02;68.64
50302;BME280;36550;50.472;19.744;2024-03-25T09:57:44;96775.40;;;11.30;69.01
50302;BME280;36550;50.472;19.744;2024-03-25T10:00:29;96771.48;;;11.34;68.82
50302;BME280;36550;50.472;19.744;2024-03-25T10:03:13;96771.48;;;11.27;68.52
50302;BME280;36550;50.472;19.744;2024-03-25T10:05:58;96773.23;;;11.04;67.91
50302;BME280;36550;50.472;19.744;2024-03-25T10:08:42;96770.84;;;10.97;67.67
50302;BME280;36550;50.472;19.744;2024-03-25T10:11:26;96768.97;;;11.06;67.44
50302;BME280;36550;50.472;19.744;2024-03-25T10:14:12;96768.61;;;11.24;68.03
50302;BME280;36550;50.472;19.744;2024-03-25T10:16:56;96770.31;;;11.51;67.75
50302;BME280;36550;50.472;19.744;2024-03-25T10:19:40;96767.36;;;11.80;67.80
50302;BME280;36550;50.472;19.744;2024-03-25T10:22:25;96775.23;;;12.04;67.37
50302;BME280;36550;50.472;19.744;2024-03-25T10:28:08;96781.02;;;12.03;65.32
50302;BME280;36550;50.472;19.744;2024-03-25T10:30:52;96784.43;;;11.88;64.59
50302;BME280;36550;50.472;19.744;2024-03-25T10:33:37;96792.46;;;11.65;64.05
50302;BME280;36550;50.472;19.744;2024-03-25T10:36:22;96799.52;;;11.30;63.85
50302;BME280;36550;50.472;19.744;2024-03-25T10:39:08;96806.06;;;10.99;64.26
50302;BME280;36550;50.472;19.744;2024-03-25T10:41:56;96803.22;;;10.78;64.74
50302;BME280;36550;50.472;19.744;2024-03-25T10:44:40;96801.55;;;10.69;65.57
50302;BME280;36550;50.472;19.744;2024-03-25T10:47:27;96799.35;;;10.59;66.28
50302;BME280;36550;50.472;19.744;2024-03-25T10:50:16;96797.94;;;10.60;66.58
50302;BME280;36550;50.472;19.744;2024-03-25T10:53:02;96799.40;;;10.62;66.71
50302;BME280;36550;50.472;19.744;2024-03-25T10:55:55;96799.09;;;10.60;66.85
50302;BME280;36550;50.472;19.744;2024-03-25T10:58:40;96802.51;;;10.43;65.92
50302;BME280;36550;50.472;19.744;2024-03-25T11:01:24;96809.86;;;10.16;65.67
50302;BME280;36550;50.472;19.744;2024-03-25T11:04:11;96829.55;;;9.80;66.27
50302;BME280;36550;50.472;19.744;2024-03-25T11:07:09;96848.13;;;9.33;65.96
50302;BME280;36550;50.472;19.744;2024-03-25T11:10:03;96854.91;;;8.70;65.84
50302;BME280;36550;50.472;19.744;2024-03-25T11:12:49;96851.30;;;8.07;66.28
50302;BME280;36550;50.472;19.744;2024-03-25T11:15:40;96849.36;;;7.71;67.07
50302;BME280;36550;50.472;19.744;2024-03-25T11:18:27;96848.92;;;7.51;67.71
50302;BME280;36550;50.472;19.744;2024-03-25T11:21:13;96846.28;;;7.39;68.21
50302;BME280;36550;50.472;19.744;2024-03-25T11:24:06;96841.64;;;7.48;68.93
50302;BME280;36550;50.472;19.744;2024-03-25T11:26:51;96841.20;;;7.69;69.49
50302;BME280;36550;50.472;19.744;2024-03-25T11:29:37;96839.09;;;7.86;69.47
50302;BME280;36550;50.472;19.744;2024-03-25T11:32:20;96839.41;;;7.98;69.57
50302;BME280;36550;50.472;19.744;2024-03-25T11:35:05;96837.70;;;8.10;69.98
50302;BME280;36550;50.472;19.744;2024-03-25T11:37:50;96837.48;;;8.21;70.41
50302;BME280;36550;50.472;19.744;2024-03-25T11:40:37;96829.33;;;8.33;70.89
50302;BME280;36550;50.472;19.744;2024-03-25T11:43:23;96825.42;;;8.44;71.10
50302;BME280;36550;50.472;19.744;2024-03-25T11:46:07;96824.30;;;8.56;71.42
50302;BME280;36550;50.472;19.744;2024-03-25T11:48:55;96822.27;;;8.78;71.75
50302;BME280;36550;50.472;19.744;2024-03-25T11:51:40;96823.85;;;9.16;71.96
50302;BME280;36550;50.472;19.744;2024-03-25T11:54:28;96820.51;;;9.51;71.09
50302;BME280;36550;50.472;19.744;2024-03-25T11:57:12;96816.67;;;9.84;70.71
50302;BME280;36550;50.472;19.744;2024-03-25T11:59:57;96812.95;;;10.12;69.87
50302;BME280;36550;50.472;19.744;2024-03-25T12:02:45;96814.93;;;10.39;69.49
50302;BME280;36550;50.472;19.744;2024-03-25T12:05:42;96808.63;;;10.67;69.26
50302;BME280;36550;50.472;19.744;2024-03-25T12:08:27;96808.46;;;11.02;69.57
50302;BME280;36550;50.472;19.744;2024-03-25T12:11:13;96810.51;;;11.06;68.26
50302;BME280;36550;50.472;19.744;2024-03-25T12:14:03;96816.60;;;10.73;67.53
50302;BME280;36550;50.472;19.744;2024-03-25T12:16:48;96827.91;;;10.21;66.72
50302;BME280;36550;50.472;19.744;2024-03-25T12:19:32;96831.06;;;9.58;67.35
50302;BME280;36550;50.472;19.744;2024-03-25T12:22:16;96833.48;;;9.26;68.32
50302;BME280;36550;50.472;19.744;2024-03-25T12:25:02;96837.39;;;9.21;69.24
50302;BME280;36550;50.472;19.744;2024-03-25T12:27:47;96837.67;;;9.26;69.84
50302;BME280;36550;50.472;19.744;2024-03-25T12:30:33;96835.39;;;9.41;70.46
50302;BME280;36550;50.472;19.744;2024-03-25T12:33:17;96832.91;;;9.62;70.42
50302;BME280;36550;50.472;19.744;2024-03-25T12:36:05;96832.39;;;9.80;69.64
50302;BME280;36550;50.472;19.744;2024-03-25T12:38:56;96831.21;;;9.92;69.45
50302;BME280;36550;50.472;19.744;2024-03-25T12:41:41;96835.78;;;9.98;68.63
50302;BME280;36550;50.472;19.744;2024-03-25T12:44:25;96841.58;;;9.71;67.59
50302;BME280;36550;50.472;19.744;2024-03-25T12:47:10;96848.80;;;9.33;67.14
50302;BME280;36550;50.472;19.744;2024-03-25T12:49:54;96851.29;;;8.82;68.25
50302;BME280;36550;50.472;19.744;2024-03-25T12:52:39;96837.43;;;8.54;68.86
50302;BME280;36550;50.472;19.744;2024-03-25T12:55:23;96839.83;;;8.54;69.88
50302;BME280;36550;50.472;19.744;2024-03-25T12:58:07;96841.07;;;8.45;70.32
50302;BME280;36550;50.472;19.744;2024-03-25T13:00:52;96840.68;;;8.33;70.85
50302;BME280;36550;50.472;19.744;2024-03-25T13:03:36;96839.68;;;8.28;71.36
50302;BME280;36550;50.472;19.744;2024-03-25T13:06:20;96840.50;;;8.20;71.77
50302;BME280;36550;50.472;19.744;2024-03-25T13:09:04;96841.15;;;8.16;72.03
50302;BME280;36550;50.472;19.744;2024-03-25T13:11:48;96838.75;;;8.17;72.32
50302;BME280;36550;50.472;19.744;2024-03-25T13:14:33;96840.89;;;8.21;72.50
50302;BME280;36550;50.472;19.744;2024-03-25T13:17:17;96841.64;;;8.23;72.45
50302;BME280;36550;50.472;19.744;2024-03-25T13:20:00;96837.95;;;8.28;72.60
50302;BME280;36550;50.472;19.744;2024-03-25T13:22:45;96838.27;;;8.38;72.44
50302;BME280;36550;50.472;19.744;2024-03-25T13:25:29;96839.76;;;8.51;72.42
50302;BME280;36550;50.472;19.744;2024-03-25T13:28:13;96844.88;;;8.71;72.39
50302;BME280;36550;50.472;19.744;2024-03-25T13:30:58;96846.75;;;9.01;72.24
50302;BME280;36550;50.472;19.744;2024-03-25T13:33:42;96849.89;;;9.29;72.49
50302;BME280;36550;50.472;19.744;2024-03-25T13:36:26;96848.21;;;9.39;72.13
50302;BME280;36550;50.472;19.744;2024-03-25T13:39:10;96858.40;;;9.35;71.72
50302;BME280;36550;50.472;19.744;2024-03-25T13:41:55;96889.85;;;9.12;71.55
50302;BME280;36550;50.472;19.744;2024-03-25T13:44:40;96899.74;;;8.53;70.94
50302;BME280;36550;50.472;19.744;2024-03-25T13:47:24;96900.73;;;7.96;71.37
50302;BME280;36550;50.472;19.744;2024-03-25T13:50:09;96899.77;;;7.55;71.70
50302;BME280;36550;50.472;19.744;2024-03-25T13:52:53;96900.16;;;7.30;72.58
50302;BME280;36550;50.472;19.744;2024-03-25T13:55:38;96896.51;;;7.18;72.84
50302;BME280;36550;50.472;19.744;2024-03-25T13:58:22;96886.57;;;7.17;73.27
50302;BME280;36550;50.472;19.744;2024-03-25T14:01:06;96888.83;;;7.24;73.66
50302;BME280;36550;50.472;19.744;2024-03-25T14:03:53;96890.04;;;7.33;74.03
50302;BME280;36550;50.472;19.744;2024-03-25T14:06:37;96895.16;;;7.37;74.21
50302;BME280;36550;50.472;19.744;2024-03-25T14:09:25;96895.66;;;7.36;73.97
50302;BME280;36550;50.472;19.744;2024-03-25T14:12:10;96898.02;;;7.36;73.95
50302;BME280;36550;50.472;19.744;2024-03-25T14:14:54;96903.44;;;7.36;73.90
50302;BME280;36550;50.472;19.744;2024-03-25T14:17:38;96903.54;;;7.31;73.78
50302;BME280;36550;50.472;19.744;2024-03-25T14:20:23;96897.46;;;7.30;73.82
50302;BME280;36550;50.472;19.744;2024-03-25T14:23:08;96898.38;;;7.29;73.99
50302;BME280;36550;50.472;19.744;2024-03-25T14:25:52;96899.41;;;7.31;74.25
50302;BME280;36550;50.472;19.744;2024-03-25T14:28:36;96897.93;;;7.34;74.45
50302;BME280;36550;50.472;19.744;2024-03-25T14:31:21;96901.32;;;7.41;74.98
50302;BME280;36550;50.472;19.744;2024-03-25T14:34:05;96899.40;;;7.55;75.24
50302;BME280;36550;50.472;19.744;2024-03-25T14:36:49;96903.41;;;7.66;75.40